Terminal Aerodrome Forecast
Issued by NWS Wakefield, VA

Home | Current Version | Previous Version | Text Only | Print | Product List | Glossary On
Versions: 1 2 3 4 5 6 7 8 9 10 11 12 13
000
FTUS41 KAKQ 230500 RRA
TAFSBY
TAF
KSBY 230546Z 2306/2406 29009KT P6SM BKN070 OVC090
     FM230700 32015G22KT P6SM SCT070 BKN090
     FM231400 32021G30KT P6SM SCT070
     FM232300 31013G20KT P6SM SKC=

USA.gov is the U.S. government's official web portal to all federal, state and local government web resources and services.